createdAt,value
2023-02-14T00:01:21.068Z,18.80
2023-02-14T00:03:50.292Z,19.90
2023-02-14T00:06:18.470Z,20.52
2023-02-14T00:08:46.333Z,17.73
2023-02-14T00:11:14.734Z,16.00
2023-02-14T00:14:04.031Z,19.67
2023-02-14T00:16:31.172Z,20.47
2023-02-14T00:19:05.961Z,16.52
2023-02-14T00:21:35.947Z,15.30
2023-02-14T00:24:03.936Z,17.10
2023-02-14T00:26:31.796Z,15.10
2023-02-14T00:28:59.555Z,17.90
2023-02-14T00:31:27.595Z,16.73
2023-02-14T00:33:55.626Z,16.88
2023-02-14T00:36:24.868Z,17.70
2023-02-14T00:38:52.550Z,16.38
2023-02-14T00:44:50.056Z,17.60
2023-02-14T00:47:17.917Z,18.70
2023-02-14T00:49:45.636Z,15.48
2023-02-14T00:52:14.927Z,12.18
2023-02-14T00:54:42.712Z,13.43
2023-02-14T00:57:10.520Z,15.27
2023-02-14T00:59:38.267Z,14.43
2023-02-14T01:02:06.419Z,12.10
2023-02-14T01:04:34.345Z,12.52
2023-02-14T01:07:02.189Z,11.60
2023-02-14T01:09:31.333Z,12.10
2023-02-14T01:11:59.033Z,14.35
2023-02-14T01:14:26.736Z,12.63
2023-02-14T01:17:35.095Z,12.73
2023-02-14T01:20:03.104Z,9.67
2023-02-14T01:23:25.750Z,14.95
2023-02-14T01:26:48.458Z,11.88
2023-02-14T01:29:56.785Z,10.88
2023-02-14T01:32:25.997Z,9.50
2023-02-14T01:34:53.763Z,10.93
2023-02-14T01:37:21.521Z,11.48
2023-02-14T01:39:49.320Z,11.25
2023-02-14T01:42:17.122Z,10.32
2023-02-14T01:45:03.306Z,12.40
2023-02-14T01:47:35.959Z,12.57
2023-02-14T01:50:09.244Z,10.40
2023-02-14T01:52:42.661Z,11.70
2023-02-14T01:55:16.584Z,10.65
2023-02-14T01:57:48.517Z,11.50
2023-02-14T02:00:35.153Z,9.77
2023-02-14T02:03:06.545Z,11.05
2023-02-14T02:05:34.816Z,10.52
2023-02-14T02:08:03.123Z,8.93
2023-02-14T02:10:31.068Z,10.95
2023-02-14T02:13:04.622Z,12.83
2023-02-14T02:15:41.814Z,9.88
2023-02-14T02:18:20.134Z,13.05
2023-02-14T02:21:28.726Z,9.93
2023-02-14T02:24:29.143Z,9.82
2023-02-14T02:27:26.463Z,10.83
2023-02-14T02:30:27.284Z,10.15
2023-02-14T02:33:54.840Z,10.20
2023-02-14T02:36:51.065Z,8.13
2023-02-14T02:39:39.916Z,7.95
2023-02-14T02:42:21.014Z,8.70
2023-02-14T02:44:57.185Z,7.63
2023-02-14T02:47:31.611Z,8.55
2023-02-14T02:50:24.048Z,11.32
2023-02-14T02:53:06.360Z,8.80
2023-02-14T02:56:03.189Z,9.63
2023-02-14T02:58:36.636Z,10.57
2023-02-14T03:01:10.509Z,11.77
2023-02-14T03:03:57.894Z,8.45
2023-02-14T03:06:25.759Z,9.88
2023-02-14T03:08:54.933Z,10.00
2023-02-14T03:11:23.932Z,11.63
2023-02-14T03:14:06.931Z,8.77
2023-02-14T03:16:37.576Z,8.95
2023-02-14T03:19:18.542Z,8.43
2023-02-14T03:21:54.690Z,9.87
2023-02-14T03:24:29.371Z,11.25
2023-02-14T03:27:05.707Z,9.82
2023-02-14T03:29:44.655Z,8.70
2023-02-14T03:32:18.545Z,9.57
2023-02-14T03:34:54.227Z,10.53
2023-02-14T03:37:27.656Z,9.63
2023-02-14T03:40:06.647Z,10.45
2023-02-14T03:42:39.177Z,8.82
2023-02-14T03:45:12.995Z,10.65
2023-02-14T03:47:44.473Z,7.27
2023-02-14T03:50:15.663Z,9.82
2023-02-14T03:52:44.652Z,11.90
2023-02-14T03:55:17.076Z,9.65
2023-02-14T03:57:54.069Z,10.80
2023-02-14T04:00:22.020Z,10.53
2023-02-14T04:02:55.003Z,9.68
2023-02-14T04:05:26.771Z,9.60
2023-02-14T04:07:56.757Z,10.23
2023-02-14T04:10:26.591Z,9.52
2023-02-14T04:12:55.069Z,10.50
2023-02-14T04:15:22.991Z,9.93
2023-02-14T04:18:08.342Z,12.82
2023-02-14T04:20:37.144Z,10.38
2023-02-14T04:23:05.195Z,12.90
2023-02-14T04:25:34.339Z,11.00
2023-02-14T04:28:02.150Z,11.85
2023-02-14T04:30:30.106Z,11.18
2023-02-14T04:32:57.947Z,10.40
2023-02-14T04:35:25.831Z,13.32
2023-02-14T04:37:53.640Z,10.90
2023-02-14T04:40:21.608Z,10.77
2023-02-14T04:42:50.787Z,11.68
2023-02-14T04:45:18.610Z,11.68
2023-02-14T04:47:46.781Z,11.93
2023-02-14T04:50:15.306Z,12.33
2023-02-14T04:52:43.114Z,12.55
2023-02-14T04:55:11.396Z,13.85
2023-02-14T04:57:39.182Z,11.43
2023-02-14T05:00:09.544Z,12.95
2023-02-14T05:02:38.085Z,10.40
2023-02-14T05:05:06.465Z,12.43
2023-02-14T05:07:34.457Z,11.70
2023-02-14T05:10:02.270Z,13.00
2023-02-14T05:12:30.044Z,12.15
2023-02-14T05:14:58.174Z,13.50
2023-02-14T05:17:27.474Z,12.90
2023-02-14T05:19:55.262Z,15.20
2023-02-14T05:22:23.108Z,14.40
2023-02-14T05:24:50.888Z,14.73
2023-02-14T05:27:18.700Z,12.47
2023-02-14T05:29:46.546Z,15.25
2023-02-14T05:32:14.406Z,14.07
2023-02-14T05:34:43.570Z,12.35
2023-02-14T05:37:11.368Z,14.57
2023-02-14T05:39:39.164Z,14.47
2023-02-14T05:42:07.036Z,15.60
2023-02-14T05:44:34.810Z,15.77
2023-02-14T05:47:02.605Z,13.20
2023-02-14T05:49:30.379Z,11.60
2023-02-14T05:51:59.538Z,14.07
2023-02-14T05:54:27.372Z,16.13
2023-02-14T05:56:55.195Z,16.70
2023-02-14T05:59:23.215Z,14.43
2023-02-14T06:01:51.065Z,15.10
2023-02-14T06:04:18.952Z,14.63
2023-02-14T06:06:46.770Z,15.70
2023-02-14T06:09:15.990Z,16.17
2023-02-14T06:11:43.775Z,16.88
2023-02-14T06:14:11.598Z,16.95
2023-02-14T06:16:39.446Z,14.00
2023-02-14T06:19:07.309Z,15.65
2023-02-14T06:21:36.373Z,17.73
2023-02-14T06:24:04.624Z,23.42
2023-02-14T06:26:36.013Z,19.63
2023-02-14T06:29:05.216Z,22.27
2023-02-14T06:31:33.240Z,21.10
2023-02-14T06:34:01.156Z,21.05
2023-02-14T06:36:29.000Z,22.15
2023-02-14T06:38:57.309Z,21.92
2023-02-14T06:41:25.125Z,23.70
2023-02-14T06:43:54.387Z,23.70
2023-02-14T06:46:22.470Z,22.45
2023-02-14T06:48:50.406Z,22.77
2023-02-14T06:51:18.214Z,25.35
2023-02-14T06:53:46.046Z,24.83
2023-02-14T06:56:13.824Z,24.98
2023-02-14T06:58:41.616Z,26.98
2023-02-14T07:01:10.868Z,28.90
2023-02-14T07:03:38.744Z,27.17
2023-02-14T07:06:06.969Z,29.43
2023-02-14T07:08:35.040Z,30.48
2023-02-14T07:11:03.586Z,28.80
2023-02-14T07:13:31.415Z,32.35
2023-02-14T07:15:59.295Z,27.95
2023-02-14T07:18:28.540Z,33.00
2023-02-14T07:20:56.601Z,30.23
2023-02-14T07:23:24.550Z,30.05
2023-02-14T07:25:52.447Z,27.30
2023-02-14T07:28:20.261Z,27.00
2023-02-14T07:30:48.187Z,29.73
2023-02-14T07:33:18.701Z,28.05
2023-02-14T07:35:47.833Z,29.27
2023-02-14T07:38:15.613Z,24.00
2023-02-14T07:40:43.420Z,24.50
2023-02-14T07:43:11.226Z,24.90
2023-02-14T07:46:02.268Z,28.27
2023-02-14T07:48:33.902Z,29.80
2023-02-14T07:51:03.718Z,29.77
2023-02-14T07:53:31.974Z,29.13
2023-02-14T07:55:59.777Z,27.40
2023-02-14T07:58:27.702Z,25.90
2023-02-14T08:00:56.122Z,26.88
2023-02-14T08:03:23.943Z,25.65
2023-02-14T08:05:57.128Z,27.88
2023-02-14T08:08:27.863Z,24.97
2023-02-14T08:10:55.857Z,27.75
2023-02-14T08:13:23.879Z,27.83
2023-02-14T08:16:07.574Z,26.05
2023-02-14T08:18:38.386Z,23.58
2023-02-14T08:21:08.158Z,27.30
2023-02-14T08:23:38.147Z,26.90
2023-02-14T08:26:06.425Z,22.40
2023-02-14T08:28:34.983Z,21.38
2023-02-14T08:31:03.550Z,25.92
2023-02-14T08:33:31.699Z,23.80
2023-02-14T08:36:00.196Z,25.52
2023-02-14T08:38:28.023Z,25.80
2023-02-14T08:41:01.316Z,23.02
2023-02-14T08:43:29.446Z,23.05
2023-02-14T08:45:57.365Z,23.47
2023-02-14T08:48:26.763Z,23.75
2023-02-14T08:50:54.579Z,22.05
2023-02-14T08:53:22.741Z,25.15
2023-02-14T08:55:50.573Z,24.58
2023-02-14T08:58:19.725Z,25.37
2023-02-14T09:00:47.573Z,25.33
2023-02-14T09:03:15.452Z,24.92
2023-02-14T09:05:43.281Z,25.23
2023-02-14T09:08:11.187Z,22.45
2023-02-14T09:10:39.058Z,24.30
2023-02-14T09:13:07.399Z,23.75
2023-02-14T09:15:36.815Z,21.33
2023-02-14T09:18:04.715Z,27.65
2023-02-14T09:20:32.574Z,27.77
2023-02-14T09:23:00.374Z,24.73
2023-02-14T09:25:28.198Z,28.38
2023-02-14T09:27:56.060Z,26.38
2023-02-14T09:30:23.923Z,29.50
2023-02-14T09:32:54.392Z,22.73
2023-02-14T09:35:22.540Z,24.77
2023-02-14T09:37:50.427Z,27.35
2023-02-14T09:40:20.553Z,22.48
2023-02-14T09:43:01.856Z,23.52
2023-02-14T09:45:31.752Z,27.73
2023-02-14T09:48:04.727Z,30.23
2023-02-14T09:50:37.725Z,30.98
2023-02-14T09:53:14.317Z,25.10
2023-02-14T09:55:52.305Z,24.55
2023-02-14T09:58:24.166Z,26.77
2023-02-14T10:00:58.820Z,23.20
2023-02-14T10:03:49.964Z,25.42
2023-02-14T10:06:41.791Z,25.35
2023-02-14T10:09:22.518Z,25.45
2023-02-14T10:11:51.513Z,23.95
2023-02-14T10:14:22.193Z,27.67
2023-02-14T10:16:54.844Z,22.98
2023-02-14T10:19:29.866Z,23.48
2023-02-14T10:22:02.635Z,25.80
2023-02-14T10:24:34.620Z,21.02
2023-02-14T10:27:12.588Z,22.57
2023-02-14T10:29:42.326Z,23.63
2023-02-14T10:32:15.504Z,22.88
2023-02-14T10:34:49.141Z,22.52
2023-02-14T10:37:33.687Z,20.75
2023-02-14T10:40:41.844Z,21.57
2023-02-14T10:43:20.419Z,23.25
2023-02-14T10:45:59.878Z,25.02
2023-02-14T10:48:35.796Z,24.15
2023-02-14T10:51:16.479Z,23.90
2023-02-14T10:53:54.414Z,25.13
2023-02-14T10:56:27.545Z,28.40
2023-02-14T10:58:57.735Z,21.65
2023-02-14T11:01:26.209Z,27.25
2023-02-14T11:03:58.590Z,21.60
2023-02-14T11:06:28.353Z,22.50
2023-02-14T11:08:57.348Z,23.50
2023-02-14T11:11:28.375Z,21.73
2023-02-14T11:13:56.210Z,24.33
2023-02-14T11:16:31.239Z,23.98
2023-02-14T11:19:21.750Z,19.70
2023-02-14T11:21:52.468Z,23.48
2023-02-14T11:24:26.739Z,23.75
2023-02-14T11:26:59.012Z,20.27
2023-02-14T11:29:31.270Z,23.92
2023-02-14T11:32:09.285Z,26.50
2023-02-14T11:34:40.131Z,21.40
2023-02-14T11:37:26.872Z,18.80
2023-02-14T11:39:56.407Z,21.73
2023-02-14T11:42:38.634Z,19.60
2023-02-14T11:45:07.689Z,20.53
2023-02-14T11:47:41.440Z,23.92
2023-02-14T11:50:23.291Z,23.40
2023-02-14T11:52:56.430Z,26.40
2023-02-14T11:55:27.889Z,24.58
2023-02-14T11:57:56.992Z,26.50
2023-02-14T12:00:26.889Z,24.17
2023-02-14T12:02:56.657Z,23.60
2023-02-14T12:05:28.258Z,22.58
2023-02-14T12:07:59.883Z,24.23
2023-02-14T12:10:29.908Z,23.30
2023-02-14T12:13:01.429Z,21.73
2023-02-14T12:15:36.641Z,24.77
2023-02-14T12:18:37.690Z,25.80
2023-02-14T12:21:16.038Z,24.00
2023-02-14T12:23:48.741Z,21.93
2023-02-14T12:26:26.800Z,22.27
2023-02-14T12:29:02.308Z,23.77
2023-02-14T12:31:31.644Z,23.83
2023-02-14T12:33:59.625Z,29.25
2023-02-14T12:36:43.541Z,26.53
2023-02-14T12:39:23.331Z,24.20
2023-02-14T12:42:04.601Z,26.40
2023-02-14T12:44:45.115Z,26.13
2023-02-14T12:47:26.438Z,24.83
2023-02-14T12:50:20.840Z,27.10
2023-02-14T12:53:04.547Z,26.83
2023-02-14T12:55:54.454Z,23.33
2023-02-14T12:58:31.162Z,22.27
2023-02-14T13:01:28.529Z,23.42
2023-02-14T13:04:34.762Z,23.30
2023-02-14T13:07:09.734Z,24.60
2023-02-14T13:09:46.506Z,24.30
2023-02-14T13:12:29.715Z,23.10
2023-02-14T13:15:07.039Z,27.35
2023-02-14T13:17:40.559Z,26.43
2023-02-14T13:20:30.951Z,26.90
2023-02-14T13:23:04.094Z,27.17
2023-02-14T13:25:36.011Z,25.95
2023-02-14T13:28:07.981Z,23.88
2023-02-14T13:30:38.666Z,22.20
2023-02-14T13:33:10.207Z,26.27
2023-02-14T13:35:38.586Z,24.98
2023-02-14T13:38:09.727Z,24.38
2023-02-14T13:40:38.734Z,26.13
2023-02-14T13:43:08.016Z,26.43
2023-02-14T13:45:56.598Z,23.92
2023-02-14T13:48:27.436Z,27.65
2023-02-14T13:50:58.307Z,22.83
2023-02-14T13:53:35.308Z,28.00
2023-02-14T13:56:06.016Z,25.17
2023-02-14T13:58:36.521Z,29.50
2023-02-14T14:01:31.481Z,24.42
2023-02-14T14:04:00.857Z,24.83
2023-02-14T14:06:29.311Z,24.77
2023-02-14T14:08:58.851Z,23.13
2023-02-14T14:12:02.890Z,25.27
2023-02-14T14:14:36.462Z,24.63
2023-02-14T14:17:23.174Z,25.98
2023-02-14T14:19:51.641Z,26.50
2023-02-14T14:22:19.942Z,25.17
2023-02-14T14:24:57.084Z,29.63
2023-02-14T14:27:28.524Z,26.92
2023-02-14T14:29:59.583Z,25.75
2023-02-14T14:32:30.635Z,28.65
2023-02-14T14:35:00.369Z,31.60
2023-02-14T14:37:29.776Z,27.52
2023-02-14T14:40:00.156Z,27.20
2023-02-14T14:42:31.613Z,25.98
2023-02-14T14:45:05.391Z,31.27
2023-02-14T14:47:39.367Z,25.47
2023-02-14T14:50:11.434Z,31.13
2023-02-14T14:52:43.798Z,27.65
2023-02-14T14:55:21.073Z,29.23
2023-02-14T14:57:53.587Z,25.00
2023-02-14T15:00:28.533Z,27.50
2023-02-14T15:02:59.108Z,24.60
2023-02-14T15:05:29.770Z,26.92
2023-02-14T15:07:58.810Z,25.17
2023-02-14T15:10:29.550Z,32.25
2023-02-14T15:13:16.870Z,29.33
2023-02-14T15:15:51.413Z,28.80
2023-02-14T15:18:21.291Z,27.98
2023-02-14T15:20:51.028Z,27.42
2023-02-14T15:23:20.801Z,28.85
2023-02-14T15:25:50.384Z,28.27
2023-02-14T15:28:28.641Z,28.58
2023-02-14T15:31:00.578Z,31.83
2023-02-14T15:33:30.113Z,27.67
2023-02-14T15:36:00.050Z,27.00
2023-02-14T15:38:29.069Z,26.93
2023-02-14T15:40:57.896Z,28.00
2023-02-14T15:43:32.656Z,26.67
2023-02-14T15:46:17.195Z,30.52
2023-02-14T15:48:46.381Z,27.33
2023-02-14T15:51:20.667Z,26.37
2023-02-14T15:53:52.870Z,24.92
2023-02-14T15:56:25.182Z,30.80
2023-02-14T15:59:00.008Z,32.75
2023-02-14T16:01:30.326Z,27.63
2023-02-14T16:04:01.326Z,23.43
2023-02-14T16:06:35.498Z,25.77
2023-02-14T16:09:04.454Z,25.02
2023-02-14T16:11:35.459Z,28.27
2023-02-14T16:14:27.972Z,25.85
2023-02-14T16:17:02.063Z,26.03
2023-02-14T16:19:34.657Z,23.02
2023-02-14T16:22:02.524Z,29.63
2023-02-14T16:24:30.368Z,26.95
2023-02-14T16:26:58.445Z,24.70
2023-02-14T16:29:26.249Z,26.90
2023-02-14T16:32:16.127Z,29.58
2023-02-14T16:34:47.189Z,22.95
2023-02-14T16:37:22.216Z,28.75
2023-02-14T16:39:50.426Z,26.48
2023-02-14T16:42:19.691Z,24.57
2023-02-14T16:44:48.003Z,29.23
2023-02-14T16:47:17.648Z,26.15
2023-02-14T16:52:36.430Z,27.83
2023-02-14T16:55:04.788Z,24.40
2023-02-14T16:57:36.535Z,25.10
2023-02-14T17:00:06.857Z,24.98
2023-02-14T17:02:35.259Z,28.85
2023-02-14T17:05:03.370Z,34.80
2023-02-14T17:07:33.300Z,24.50
2023-02-14T17:10:07.060Z,27.70
2023-02-14T17:12:39.083Z,25.15
2023-02-14T17:15:14.006Z,26.92
2023-02-14T17:17:42.652Z,26.35
2023-02-14T17:20:12.344Z,32.43
2023-02-14T17:22:42.478Z,26.75
2023-02-14T17:25:11.685Z,31.30
2023-02-14T17:27:43.884Z,31.20
2023-02-14T17:30:12.688Z,28.08
2023-02-14T17:32:40.499Z,30.43
2023-02-14T17:35:09.070Z,26.27
2023-02-14T17:37:37.361Z,26.23
2023-02-14T17:40:07.044Z,27.58
2023-02-14T17:42:36.648Z,24.38
2023-02-14T17:45:06.261Z,27.80
2023-02-14T17:47:34.818Z,19.85
2023-02-14T17:50:03.507Z,30.13
2023-02-14T17:52:31.456Z,28.15
2023-02-14T17:54:59.961Z,29.67
2023-02-14T17:57:27.871Z,27.30
2023-02-14T17:59:58.154Z,28.33
2023-02-14T18:02:26.298Z,29.10
2023-02-14T18:04:55.047Z,28.27
2023-02-14T18:07:23.850Z,25.33
2023-02-14T18:09:51.672Z,24.97
2023-02-14T18:12:19.847Z,29.35
2023-02-14T18:14:47.719Z,31.90
2023-02-14T18:17:17.011Z,27.48
2023-02-14T18:19:46.595Z,30.23
2023-02-14T18:22:14.742Z,30.17
2023-02-14T18:24:42.712Z,29.85
2023-02-14T18:27:10.541Z,21.95
2023-02-14T18:29:39.456Z,31.98
2023-02-14T18:32:07.312Z,31.58
2023-02-14T18:34:38.671Z,25.10
2023-02-14T18:37:07.132Z,31.05
2023-02-14T18:39:35.003Z,30.17
2023-02-14T18:42:02.840Z,29.58
2023-02-14T18:44:30.853Z,27.92
2023-02-14T18:47:00.989Z,31.73
2023-02-14T18:49:28.819Z,26.55
2023-02-14T18:51:58.812Z,26.73
2023-02-14T18:54:26.714Z,24.80
2023-02-14T18:56:54.516Z,28.52
2023-02-14T18:59:23.438Z,24.37
2023-02-14T19:01:52.135Z,26.38
2023-02-14T19:04:19.966Z,32.17
2023-02-14T19:06:47.738Z,25.58
2023-02-14T19:09:18.681Z,28.50
2023-02-14T19:11:46.908Z,31.70
2023-02-14T19:14:14.802Z,29.52
2023-02-14T19:16:50.073Z,29.27
2023-02-14T19:19:18.792Z,28.42
2023-02-14T19:21:46.936Z,29.38
2023-02-14T19:24:17.873Z,27.37
2023-02-14T19:26:45.698Z,28.85
2023-02-14T19:29:15.609Z,37.45
2023-02-14T19:31:46.037Z,29.85
2023-02-14T19:34:17.836Z,30.55
2023-02-14T19:36:46.343Z,26.70
2023-02-14T19:39:16.089Z,26.33
2023-02-14T19:41:44.013Z,26.20
2023-02-14T19:44:14.750Z,26.95
2023-02-14T19:46:43.792Z,31.95
2023-02-14T19:49:14.367Z,21.53
2023-02-14T19:51:42.383Z,29.45
2023-02-14T19:54:10.765Z,31.35
2023-02-14T19:56:42.396Z,29.85
2023-02-14T19:59:11.275Z,28.60
2023-02-14T20:01:42.025Z,27.80
2023-02-14T20:04:13.796Z,27.15
2023-02-14T20:06:51.372Z,30.73
2023-02-14T20:09:21.718Z,26.90
2023-02-14T20:11:54.328Z,26.70
2023-02-14T20:14:24.588Z,37.90
2023-02-14T20:16:53.419Z,31.02
2023-02-14T20:19:23.108Z,32.55
2023-02-14T20:21:51.951Z,30.67
2023-02-14T20:24:21.354Z,25.95
2023-02-14T20:26:52.295Z,32.97
2023-02-14T20:29:21.788Z,34.13
2023-02-14T20:31:51.892Z,33.22
2023-02-14T20:34:20.160Z,28.83
2023-02-14T20:36:53.248Z,27.05
2023-02-14T20:39:22.610Z,27.07
2023-02-14T20:41:51.749Z,28.75
2023-02-14T20:44:21.632Z,24.20
2023-02-14T20:46:51.857Z,25.65
2023-02-14T20:49:21.017Z,24.33
2023-02-14T20:51:50.693Z,24.13
2023-02-14T20:54:19.128Z,30.85
2023-02-14T20:56:47.440Z,22.88
2023-02-14T20:59:16.607Z,22.40
2023-02-14T21:01:44.449Z,26.02
2023-02-14T21:04:14.020Z,24.27
2023-02-14T21:06:42.100Z,26.27
2023-02-14T21:09:09.960Z,30.10
2023-02-14T21:11:37.767Z,24.67
2023-02-14T21:14:05.648Z,28.55
2023-02-14T21:16:34.795Z,27.10
2023-02-14T21:19:02.585Z,26.08
2023-02-14T21:21:34.782Z,25.60
2023-02-14T21:24:04.991Z,27.55
2023-02-14T21:26:32.805Z,27.98
2023-02-14T21:29:00.701Z,26.60
2023-02-14T21:31:28.700Z,24.52
2023-02-14T21:33:59.695Z,26.48
2023-02-14T21:36:29.471Z,26.13
2023-02-14T21:38:59.003Z,27.15
2023-02-14T21:41:28.563Z,22.87
2023-02-14T21:43:57.353Z,28.60
2023-02-14T21:46:27.708Z,28.08
2023-02-14T21:49:15.339Z,28.50
2023-02-14T21:51:43.461Z,27.15
2023-02-14T21:54:12.203Z,24.57
2023-02-14T21:56:41.284Z,21.85
2023-02-14T21:59:10.054Z,30.50
2023-02-14T22:01:41.094Z,27.77
2023-02-14T22:04:12.316Z,30.73
2023-02-14T22:06:41.990Z,24.40
2023-02-14T22:09:11.196Z,28.45
2023-02-14T22:11:39.313Z,29.65
2023-02-14T22:14:07.118Z,29.27
2023-02-14T22:16:36.752Z,25.55
2023-02-14T22:19:05.194Z,31.23
2023-02-14T22:21:35.326Z,27.67
2023-02-14T22:24:03.143Z,27.50
2023-02-14T22:26:33.831Z,32.28
2023-02-14T22:29:03.340Z,27.88
2023-02-14T22:31:34.487Z,26.23
2023-02-14T22:34:02.436Z,28.27
2023-02-14T22:36:30.214Z,24.67
2023-02-14T22:38:59.380Z,33.38
2023-02-14T22:41:27.446Z,30.55
2023-02-14T22:43:55.607Z,34.27
2023-02-14T22:46:25.051Z,28.10
2023-02-14T22:48:53.997Z,32.17
2023-02-14T22:51:24.406Z,27.17
2023-02-14T22:53:54.939Z,26.33
2023-02-14T22:56:25.892Z,29.00
2023-02-14T22:58:55.283Z,27.35
2023-02-14T23:01:24.411Z,25.73
2023-02-14T23:03:54.850Z,26.70
2023-02-14T23:06:22.955Z,22.88
2023-02-14T23:08:50.815Z,22.70
2023-02-14T23:11:20.560Z,27.98
2023-02-14T23:14:07.373Z,23.95
2023-02-14T23:16:52.647Z,21.85
2023-02-14T23:19:39.527Z,24.00
2023-02-14T23:22:08.928Z,26.60
2023-02-14T23:24:36.938Z,20.52
2023-02-14T23:27:04.999Z,23.38
2023-02-14T23:29:34.420Z,18.02
2023-02-14T23:32:02.330Z,25.20
2023-02-14T23:34:32.553Z,41.87
2023-02-14T23:37:00.706Z,31.35
2023-02-14T23:39:28.699Z,25.75
2023-02-14T23:41:56.507Z,31.23
2023-02-14T23:44:26.046Z,27.38
2023-02-14T23:46:57.615Z,24.47
2023-02-14T23:49:27.219Z,28.83
2023-02-14T23:51:56.645Z,30.05
2023-02-14T23:54:25.646Z,24.35
2023-02-14T23:56:53.912Z,26.27
2023-02-14T23:59:22.712Z,29.03
